Time;durP1;ratioP1;P1;durP2;ratioP2;P2;SDS_P1;SDS_P2;PMS_P1;PMS_P2;Temp;Humidity;BMP_temperature;BMP_pressure;BME280_temperature;BME280_humidity;BME280_pressure;Samples;Min_cycle;Max_cycle;Signal;HPM_P1;HPM_P2
2021/04/04 00:01:32;;;;;;;21.33;5.18;;;5.40;99.90;;;;;;12353711;28;20042;-42
2021/04/04 00:07:33;;;;;;;17.15;4.85;;;5.30;99.90;;;;;;12345264;28;20569;-41
2021/04/04 00:13:36;;;;;;;17.90;4.85;;;5.40;99.90;;;;;;12339034;28;20108;-42
2021/04/04 00:19:37;;;;;;;18.30;4.60;;;5.30;99.90;;;;;;12349094;28;20054;-43
2021/04/04 00:25:39;;;;;;;24.20;5.28;;;5.40;99.90;;;;;;12345615;28;20042;-42
2021/04/04 00:31:40;;;;;;;21.13;5.88;;;5.40;99.90;;;;;;12350870;28;20461;-42
2021/04/04 00:37:43;;;;;;;17.77;5.18;;;5.30;99.90;;;;;;12332308;28;20051;-42
2021/04/04 00:43:45;;;;;;;22.50;5.75;;;5.20;99.90;;;;;;12347336;28;20078;-43
2021/04/04 00:49:46;;;;;;;17.13;4.85;;;5.30;99.90;;;;;;12345836;28;20049;-42
2021/04/04 00:55:47;;;;;;;17.88;5.22;;;5.30;99.90;;;;;;12334022;28;20093;-43
2021/04/04 01:01:49;;;;;;;19.52;4.47;;;5.20;99.90;;;;;;12346428;28;20282;-41
2021/04/04 01:07:51;;;;;;;21.95;5.35;;;5.20;99.90;;;;;;12349103;28;20050;-42
2021/04/04 01:13:59;;;;;;;19.33;4.90;;;5.10;99.90;;;;;;12356485;28;20414;-42
2021/04/04 01:20:26;;;;;;;14.18;4.15;;;5.10;99.90;;;;;;12370183;28;20527;-41
2021/04/04 01:26:54;;;;;;;22.45;4.55;;;5.30;99.90;;;;;;12362713;28;20769;-42
2021/04/04 01:32:56;;;;;;;18.85;3.95;;;5.20;99.90;;;;;;12367844;28;20103;-43
2021/04/04 01:39:01;;;;;;;19.92;4.40;;;5.30;99.90;;;;;;12368177;28;20432;-43
2021/04/04 01:45:07;;;;;;;15.68;4.47;;;5.30;99.90;;;;;;12366460;28;20116;-42
2021/04/04 01:51:10;;;;;;;14.23;4.13;;;5.40;99.90;;;;;;12350622;28;20096;-42
2021/04/04 01:57:13;;;;;;;14.60;3.80;;;5.40;99.90;;;;;;12360100;28;20479;-41
2021/04/04 02:03:16;;;;;;;19.45;3.88;;;5.30;99.90;;;;;;12355506;28;20100;-43
2021/04/04 02:09:18;;;;;;;18.67;4.05;;;5.30;99.90;;;;;;12362451;28;20058;-41
2021/04/04 02:15:25;;;;;;;15.43;3.83;;;5.40;99.90;;;;;;12348709;28;20438;-42
2021/04/04 02:21:28;;;;;;;17.38;3.55;;;5.30;99.90;;;;;;12350140;28;20123;-42
2021/04/04 02:27:30;;;;;;;13.57;3.63;;;5.30;99.90;;;;;;12346693;28;20046;-43
2021/04/04 02:33:46;;;;;;;17.00;3.58;;;5.40;99.90;;;;;;12357670;28;20220;-41
2021/04/04 02:39:55;;;;;;;20.40;4.53;;;5.40;99.90;;;;;;12340018;28;20060;-42
2021/04/04 02:45:59;;;;;;;15.70;3.22;;;5.40;99.90;;;;;;12341423;28;20050;-42
2021/04/04 02:52:04;;;;;;;17.17;3.50;;;5.40;99.90;;;;;;12365081;28;20058;-42
2021/04/04 02:58:08;;;;;;;16.25;3.85;;;5.40;99.90;;;;;;12362563;28;20086;-43
2021/04/04 03:04:11;;;;;;;18.15;4.05;;;5.40;99.90;;;;;;12367401;28;20042;-43
2021/04/04 03:10:12;;;;;;;17.65;3.67;;;5.40;99.90;;;;;;12360488;28;20598;-42
2021/04/04 03:16:15;;;;;;;16.52;3.10;;;5.40;99.90;;;;;;12367348;28;20138;-43
2021/04/04 03:22:17;;;;;;;15.75;3.35;;;5.40;99.90;;;;;;12363991;28;20042;-41
2021/04/04 03:28:19;;;;;;;16.65;3.70;;;5.30;99.90;;;;;;12361243;28;20141;-41
2021/04/04 03:34:21;;;;;;;19.30;3.80;;;5.20;99.90;;;;;;12371122;28;20058;-42
2021/04/04 03:40:23;;;;;;;15.77;3.50;;;5.20;99.90;;;;;;12366301;28;20068;-41
2021/04/04 03:46:29;;;;;;;18.27;3.58;;;5.30;99.90;;;;;;12364406;28;20108;-43
2021/04/04 03:52:32;;;;;;;20.08;4.00;;;5.20;99.90;;;;;;12365645;28;20172;-41
2021/04/04 03:58:37;;;;;;;15.98;3.50;;;5.10;99.90;;;;;;12364448;28;20163;-44
2021/04/04 04:04:39;;;;;;;;;;;5.20;99.90;;;;;;12363760;28;20775;-42
2021/04/04 04:10:42;;;;;;;16.27;3.83;;;5.20;99.90;;;;;;12365177;28;20511;-41
2021/04/04 04:16:44;;;;;;;17.67;3.22;;;5.20;99.90;;;;;;12363380;28;20054;-42
2021/04/04 04:22:45;;;;;;;14.63;3.03;;;5.20;99.90;;;;;;12369846;28;20138;-43
2021/04/04 04:28:47;;;;;;;14.85;3.05;;;5.30;99.90;;;;;;12365446;28;20123;-44
2021/04/04 04:34:54;;;;;;;10.68;3.00;;;5.20;99.90;;;;;;12366211;28;20128;-43
2021/04/04 04:40:56;;;;;;;17.13;2.90;;;5.20;99.90;;;;;;12355284;28;20104;-42
2021/04/04 04:46:58;;;;;;;14.50;2.33;;;5.20;99.90;;;;;;12368650;28;20134;-41
2021/04/04 04:52:59;;;;;;;12.95;3.42;;;5.10;99.90;;;;;;12373357;28;20141;-41
2021/04/04 04:59:03;;;;;;;13.55;2.53;;;5.10;99.90;;;;;;12360052;28;20050;-41
2021/04/04 05:05:06;;;;;;;16.83;3.28;;;5.10;99.90;;;;;;12367371;28;20773;-41
2021/04/04 05:11:09;;;;;;;15.95;2.53;;;5.20;99.90;;;;;;12369532;28;20062;-42
2021/04/04 05:17:11;;;;;;;15.30;2.80;;;5.00;99.90;;;;;;12368483;28;20111;-42
2021/04/04 05:23:23;;;;;;;21.85;2.78;;;5.00;99.90;;;;;;12367863;28;20046;-42
2021/04/04 05:29:24;;;;;;;13.68;2.90;;;5.00;99.90;;;;;;12364557;28;20046;-41
2021/04/04 05:35:25;;;;;;;10.27;2.80;;;5.10;99.90;;;;;;12368059;28;20082;-41
2021/04/04 05:41:31;;;;;;;13.18;2.47;;;5.00;99.90;;;;;;12363464;28;20539;-42
2021/04/04 05:47:42;;;;;;;15.88;3.22;;;5.10;99.90;;;;;;12366120;28;20053;-41
2021/04/04 05:53:46;;;;;;;17.05;2.92;;;5.10;99.90;;;;;;12364463;28;20050;-41
2021/04/04 05:59:56;;;;;;;13.23;2.65;;;5.00;99.90;;;;;;12354552;28;20043;-42
2021/04/04 06:06:12;;;;;;;14.13;2.78;;;5.00;99.90;;;;;;12361715;28;20046;-41
2021/04/04 06:12:26;;;;;;;12.15;2.88;;;5.10;99.90;;;;;;12358316;28;20096;-42
2021/04/04 06:18:40;;;;;;;10.83;2.93;;;5.10;99.90;;;;;;12363868;28;20055;-42
2021/04/04 06:24:56;;;;;;;14.05;3.17;;;5.00;99.90;;;;;;12363848;28;20086;-42
2021/04/04 06:31:34;;;;;;;12.93;2.30;;;5.10;99.90;;;;;;12354099;28;20151;-41
2021/04/04 06:38:12;;;;;;;15.32;2.83;;;5.10;99.90;;;;;;12352965;28;20039;-41
2021/04/04 06:44:25;;;;;;;18.45;2.38;;;5.20;99.90;;;;;;12348730;28;20046;-42
2021/04/04 06:50:35;;;;;;;12.82;2.45;;;5.20;99.90;;;;;;12350547;28;20053;-41
2021/04/04 06:56:39;;;;;;;11.85;2.28;;;5.20;99.90;;;;;;12362015;28;20050;-41
2021/04/04 07:03:02;;;;;;;8.47;2.00;;;5.40;99.90;;;;;;12347829;28;20052;-42
2021/04/04 07:09:10;;;;;;;8.82;2.05;;;5.30;99.90;;;;;;12347707;28;20054;-42
2021/04/04 07:15:26;;;;;;;11.35;2.65;;;5.30;99.90;;;;;;12347207;28;20065;-41
2021/04/04 07:21:48;;;;;;;9.27;2.17;;;5.50;99.90;;;;;;12349024;28;20058;-42
2021/04/04 07:28:23;;;;;;;12.35;2.53;;;5.40;99.90;;;;;;12363519;28;20300;-42
2021/04/04 07:34:31;;;;;;;12.52;2.45;;;5.30;99.90;;;;;;12349593;28;20897;-41
2021/04/04 07:40:48;;;;;;;8.15;2.20;;;5.20;99.90;;;;;;12350731;28;20434;-41
2021/04/04 07:47:16;;;;;;;6.90;2.60;;;5.30;99.90;;;;;;12351137;28;20042;-42
2021/04/04 07:53:27;;;;;;;9.85;1.85;;;5.60;99.90;;;;;;12350674;28;20052;-42
2021/04/04 07:59:40;;;;;;;6.05;1.83;;;5.80;99.90;;;;;;12343118;28;20625;-41
2021/04/04 08:05:46;;;;;;;7.18;2.05;;;5.70;99.90;;;;;;12352727;28;20081;-41
2021/04/04 08:12:01;;;;;;;6.88;1.70;;;5.80;99.90;;;;;;12350468;28;20046;-42
2021/04/04 08:18:03;;;;;;;5.65;1.80;;;6.40;99.90;;;;;;12354688;28;20056;-41
2021/04/04 08:24:18;;;;;;;7.05;1.90;;;6.50;99.90;;;;;;12369740;28;20474;-42
2021/04/04 08:30:28;;;;;;;6.43;1.40;;;6.60;99.90;;;;;;12367768;28;20046;-41
2021/04/04 08:36:32;;;;;;;7.00;2.15;;;6.00;99.90;;;;;;12367537;28;20046;-42
2021/04/04 08:42:35;;;;;;;7.57;1.77;;;5.70;99.90;;;;;;12364931;28;20046;-41
2021/04/04 08:48:38;;;;;;;9.57;2.42;;;5.60;99.90;;;;;;12370334;28;20100;-42
2021/04/04 08:54:43;;;;;;;8.55;2.20;;;5.70;99.90;;;;;;12356413;28;20054;-42
2021/04/04 09:00:46;;;;;;;8.15;1.95;;;6.20;99.90;;;;;;12357173;28;20147;-41
2021/04/04 09:06:49;;;;;;;8.35;2.55;;;6.50;99.90;;;;;;12357230;28;20069;-42
2021/04/04 09:12:52;;;;;;;7.93;2.38;;;6.50;99.90;;;;;;12358069;28;20992;-42
2021/04/04 09:18:56;;;;;;;7.80;2.65;;;6.40;99.90;;;;;;12359982;28;20050;-42
2021/04/04 09:25:05;;;;;;;6.18;2.28;;;6.30;99.90;;;;;;12356017;28;20046;-41
2021/04/04 09:31:30;;;;;;;7.05;2.40;;;6.30;99.90;;;;;;12363760;28;20048;-42
2021/04/04 09:37:32;;;;;;;7.13;2.90;;;6.30;99.90;;;;;;12360196;28;20453;-42
2021/04/04 09:43:42;;;;;;;7.85;3.10;;;6.20;99.90;;;;;;12360042;28;20053;-42
2021/04/04 09:49:48;;;;;;;13.10;3.47;;;6.20;99.90;;;;;;12359862;28;20057;-43
2021/04/04 09:55:50;;;;;;;11.13;2.95;;;6.20;99.90;;;;;;12339883;28;20410;-42
2021/04/04 10:01:51;;;;;;;12.23;3.25;;;6.30;99.90;;;;;;12341456;28;20536;-42
2021/04/04 10:07:53;;;;;;;11.30;3.50;;;6.60;99.90;;;;;;12344002;28;20061;-42
2021/04/04 10:14:16;;;;;;;6.97;2.90;;;6.50;99.90;;;;;;12341750;28;20068;-43
2021/04/04 10:20:39;;;;;;;7.53;3.60;;;6.50;99.90;;;;;;12348412;28;20109;-43
2021/04/04 10:26:40;;;;;;;9.43;2.90;;;6.50;99.90;;;;;;12345559;28;20722;-41
2021/04/04 10:32:43;;;;;;;8.20;3.40;;;6.40;99.90;;;;;;12352901;28;20046;-42
2021/04/04 10:38:45;;;;;;;8.40;3.13;;;6.30;99.90;;;;;;12354635;28;20054;-43
2021/04/04 10:44:48;;;;;;;5.97;2.92;;;6.30;99.90;;;;;;12346224;28;20089;-42
2021/04/04 10:50:50;;;;;;;9.43;2.50;;;6.60;99.90;;;;;;12342342;28;20107;-42
2021/04/04 10:56:52;;;;;;;9.48;2.97;;;6.70;99.90;;;;;;12352996;28;20050;-42
2021/04/04 11:02:57;;;;;;;9.43;3.15;;;6.70;99.90;;;;;;12346894;28;20156;-42
2021/04/04 11:08:59;;;;;;;4.38;2.25;;;6.80;99.90;;;;;;12354433;28;20058;-42
2021/04/04 11:15:03;;;;;;;11.25;2.95;;;6.50;99.90;;;;;;12352815;28;20745;-42
2021/04/04 11:21:12;;;;;;;7.70;2.77;;;6.70;99.90;;;;;;12357070;28;20492;-42
2021/04/04 11:27:13;;;;;;;9.60;3.40;;;6.60;99.90;;;;;;12354729;28;20085;-42
2021/04/04 11:33:17;;;;;;;9.18;2.85;;;6.70;99.90;;;;;;12345219;28;20099;-41
2021/04/04 11:39:19;;;;;;;7.30;3.22;;;6.60;99.90;;;;;;12355034;28;20080;-41
2021/04/04 11:45:37;;;;;;;6.25;3.38;;;6.50;99.90;;;;;;12352409;28;20089;-42
2021/04/04 11:51:39;;;;;;;6.50;3.70;;;6.40;99.90;;;;;;12349888;28;20064;-41
2021/04/04 11:57:42;;;;;;;9.27;4.10;;;6.60;99.90;;;;;;12354052;28;20055;-42
2021/04/04 12:03:43;;;;;;;8.70;4.65;;;6.70;99.90;;;;;;12348366;28;20047;-42
2021/04/04 12:09:47;;;;;;;8.50;2.85;;;6.60;99.90;;;;;;12352622;28;20046;-44
2021/04/04 12:15:57;;;;;;;6.32;2.83;;;6.80;99.90;;;;;;12353896;28;20150;-42
2021/04/04 12:21:59;;;;;;;9.82;4.68;;;6.80;99.90;;;;;;12352169;28;20053;-43
2021/04/04 12:28:02;;;;;;;10.68;3.50;;;6.80;99.90;;;;;;12357130;28;20054;-43
2021/04/04 12:34:04;;;;;;;10.50;4.07;;;7.00;99.90;;;;;;12361035;28;20113;-43
2021/04/04 12:40:08;;;;;;;7.53;3.55;;;7.30;99.90;;;;;;12366975;28;20128;-42
2021/04/04 12:46:10;;;;;;;6.22;3.60;;;7.50;99.90;;;;;;12368918;28;20141;-42
2021/04/04 12:52:11;;;;;;;6.75;3.25;;;7.40;99.90;;;;;;12360778;28;20116;-42
2021/04/04 12:58:13;;;;;;;9.20;4.30;;;7.20;99.90;;;;;;12349394;28;20486;-42
2021/04/04 13:04:19;;;;;;;7.07;3.90;;;7.00;99.90;;;;;;12354886;28;20077;-42
2021/04/04 13:10:20;;;;;;;10.48;4.35;;;6.90;99.90;;;;;;12362997;28;20973;-42
2021/04/04 13:16:25;;;;;;;12.55;5.05;;;6.90;99.90;;;;;;12357422;28;20109;-43
2021/04/04 13:22:27;;;;;;;13.20;5.57;;;7.00;99.90;;;;;;12365193;28;20054;-43
2021/04/04 13:28:30;;;;;;;11.75;5.72;;;7.10;99.90;;;;;;12362222;28;20062;-42
2021/04/04 13:34:38;;;;;;;7.83;3.83;;;7.20;99.90;;;;;;12360925;28;20136;-43
2021/04/04 13:40:40;;;;;;;8.70;3.08;;;7.20;99.90;;;;;;12360340;28;20400;-43
2021/04/04 13:47:01;;;;;;;6.88;3.50;;;7.20;99.90;;;;;;12356650;28;20133;-42
2021/04/04 13:53:17;;;;;;;8.35;3.10;;;7.10;99.90;;;;;;12354791;28;20099;-42
2021/04/04 13:59:24;;;;;;;8.27;3.47;;;7.00;99.90;;;;;;12348398;28;20113;-42
2021/04/04 14:05:29;;;;;;;5.53;2.47;;;7.10;99.90;;;;;;12351071;28;20082;-42
2021/04/04 14:11:30;;;;;;;7.43;2.90;;;7.40;99.90;;;;;;12358938;28;20141;-42
2021/04/04 14:17:32;;;;;;;8.50;3.13;;;7.40;99.90;;;;;;12357925;28;20050;-42
2021/04/04 14:23:35;;;;;;;8.85;3.20;;;7.40;99.90;;;;;;12354961;28;20489;-41
2021/04/04 14:29:37;;;;;;;9.38;3.00;;;7.40;99.90;;;;;;12362376;28;20624;-42
2021/04/04 14:35:38;;;;;;;7.80;2.78;;;7.20;99.90;;;;;;12353822;28;20046;-42
2021/04/04 14:41:40;;;;;;;10.43;3.05;;;7.20;99.90;;;;;;12354190;28;20100;-41
2021/04/04 14:47:41;;;;;;;5.50;2.60;;;7.20;99.90;;;;;;12351074;28;20045;-42
2021/04/04 14:53:42;;;;;;;6.18;2.70;;;7.10;99.90;;;;;;12359269;28;20039;-42
2021/04/04 14:59:44;;;;;;;7.07;2.20;;;7.20;99.90;;;;;;12348609;28;20055;-41
2021/04/04 15:05:45;;;;;;;9.40;2.45;;;7.30;99.90;;;;;;12358645;28;20090;-42
2021/04/04 15:11:46;;;;;;;6.15;2.47;;;7.30;99.90;;;;;;12345524;28;20081;-42
2021/04/04 15:17:48;;;;;;;8.40;2.88;;;7.20;99.90;;;;;;12348601;28;20046;-42
2021/04/04 15:23:50;;;;;;;9.32;2.75;;;7.20;99.90;;;;;;12357122;28;20081;-41
2021/04/04 15:29:52;;;;;;;5.80;2.92;;;7.20;99.90;;;;;;12361704;28;20506;-43
2021/04/04 15:35:54;;;;;;;7.45;3.67;;;7.20;99.90;;;;;;12356383;28;20757;-42
2021/04/04 15:41:55;;;;;;;7.65;3.40;;;7.10;99.90;;;;;;12350977;28;20285;-42
2021/04/04 15:48:05;;;;;;;8.02;3.20;;;7.10;99.90;;;;;;12356502;28;20145;-43
2021/04/04 15:54:07;;;;;;;8.35;3.05;;;7.00;99.90;;;;;;12354480;28;20541;-42
2021/04/04 16:00:11;;;;;;;8.15;3.60;;;6.90;99.90;;;;;;12357845;28;20050;-42
2021/04/04 16:06:12;;;;;;;12.38;3.50;;;7.10;99.90;;;;;;12365600;28;20441;-42
2021/04/04 16:12:14;;;;;;;8.98;3.30;;;7.10;99.90;;;;;;12357387;28;20090;-44
2021/04/04 16:18:15;;;;;;;8.23;3.55;;;6.90;99.90;;;;;;12358001;28;20104;-42
2021/04/04 16:24:16;;;;;;;9.88;3.25;;;7.00;99.90;;;;;;12355073;28;20054;-41
2021/04/04 16:30:21;;;;;;;12.40;3.47;;;6.90;99.90;;;;;;12361191;28;20049;-42
2021/04/04 16:36:22;;;;;;;11.88;3.83;;;6.90;99.90;;;;;;12353096;28;20046;-42
2021/04/04 16:42:24;;;;;;;8.13;3.25;;;6.90;99.90;;;;;;12364282;28;20640;-42
2021/04/04 16:48:25;;;;;;;9.77;4.28;;;6.80;99.90;;;;;;12361903;28;20144;-44
2021/04/04 16:54:27;;;;;;;11.23;4.65;;;6.80;99.90;;;;;;12357693;28;20120;-42
2021/04/04 17:00:29;;;;;;;13.50;4.75;;;6.60;99.90;;;;;;12355639;28;20132;-43
2021/04/04 17:06:33;;;;;;;12.38;4.88;;;6.60;99.90;;;;;;12360533;28;20065;-41
2021/04/04 17:12:38;;;;;;;12.13;4.78;;;6.60;99.90;;;;;;12353313;28;20137;-42
2021/04/04 17:18:39;;;;;;;12.35;3.97;;;6.70;99.90;;;;;;12353589;28;20049;-42
2021/04/04 17:24:41;;;;;;;15.00;4.57;;;6.50;99.90;;;;;;12358019;28;20093;-43
2021/04/04 17:30:43;;;;;;;12.45;4.10;;;6.40;99.90;;;;;;12324704;28;20054;-43
2021/04/04 17:36:45;;;;;;;9.93;4.63;;;6.70;99.90;;;;;;12352847;28;20153;-42
2021/04/04 17:42:47;;;;;;;8.20;4.25;;;6.70;99.90;;;;;;12348011;28;20781;-42
2021/04/04 17:48:49;;;;;;;8.95;3.92;;;6.80;99.90;;;;;;12351950;28;20054;-43
2021/04/04 17:54:50;;;;;;;11.85;4.45;;;6.70;99.90;;;;;;12349564;28;20058;-41
2021/04/04 18:00:52;;;;;;;13.25;4.45;;;6.50;99.90;;;;;;12345988;28;20043;-41
2021/04/04 18:13:13;;;;;;;19.38;4.63;;;6.50;99.90;;;;;;12346520;28;20554;-41
2021/04/04 18:19:14;;;;;;;11.77;4.38;;;6.60;99.90;;;;;;12355954;28;20512;-42
2021/04/04 18:25:16;;;;;;;12.15;4.68;;;6.60;99.90;;;;;;12349370;28;20038;-42
2021/04/04 18:31:18;;;;;;;11.90;4.82;;;6.60;99.90;;;;;;12351206;28;20055;-42
2021/04/04 18:37:20;;;;;;;7.13;4.63;;;6.50;99.90;;;;;;12353906;28;20046;-43
2021/04/04 18:43:22;;;;;;;11.80;4.55;;;6.40;99.90;;;;;;12352839;28;20046;-41
2021/04/04 18:49:23;;;;;;;12.77;4.80;;;6.30;99.90;;;;;;12361924;28;20082;-42
2021/04/04 18:55:25;;;;;;;10.02;4.80;;;6.40;99.90;;;;;;12355881;28;20535;-41
2021/04/04 19:01:27;;;;;;;9.35;4.80;;;6.50;99.90;;;;;;12355812;28;20097;-42
2021/04/04 19:07:29;;;;;;;10.02;4.72;;;6.40;99.90;;;;;;12358542;28;20057;-41
2021/04/04 19:13:31;;;;;;;9.65;5.18;;;6.30;99.90;;;;;;12350808;28;20092;-42
2021/04/04 19:19:33;;;;;;;14.32;5.03;;;6.20;99.90;;;;;;12347888;28;20533;-42
2021/04/04 19:25:34;;;;;;;14.85;5.38;;;6.20;99.90;;;;;;12357641;28;20069;-42
2021/04/04 19:31:36;;;;;;;11.27;5.57;;;6.30;99.90;;;;;;12365708;28;20052;-41
2021/04/04 19:37:38;;;;;;;12.70;5.82;;;6.40;99.90;;;;;;12364093;28;20050;-41
2021/04/04 19:43:39;;;;;;;10.05;6.13;;;6.30;99.90;;;;;;12363566;28;20046;-41
2021/04/04 19:49:43;;;;;;;11.65;5.72;;;6.30;99.90;;;;;;12361538;28;20071;-42
2021/04/04 19:55:45;;;;;;;9.13;5.53;;;6.10;99.90;;;;;;12355616;28;20109;-43
2021/04/04 20:01:48;;;;;;;12.23;5.65;;;6.10;99.90;;;;;;12356299;28;20137;-42
2021/04/04 20:07:50;;;;;;;11.07;5.72;;;5.90;99.90;;;;;;12357906;28;20056;-42
2021/04/04 20:13:52;;;;;;;13.07;6.13;;;5.60;99.90;;;;;;12358234;28;20050;-41
2021/04/04 20:19:53;;;;;;;12.48;5.75;;;5.70;99.90;;;;;;12351597;28;20054;-41
2021/04/04 20:25:55;;;;;;;12.45;5.55;;;5.50;99.90;;;;;;12357334;28;20057;-41
2021/04/04 20:31:58;;;;;;;14.60;5.72;;;5.30;99.90;;;;;;12354898;28;20291;-41
2021/04/04 20:37:59;;;;;;;11.57;5.90;;;5.20;99.90;;;;;;12359120;28;20057;-41
2021/04/04 20:44:01;;;;;;;12.52;5.97;;;5.10;99.90;;;;;;12350863;28;20054;-41
2021/04/04 20:50:03;;;;;;;12.27;6.15;;;5.00;99.90;;;;;;12354774;28;20449;-41
2021/04/04 20:56:06;;;;;;;14.13;7.03;;;5.00;99.90;;;;;;12352319;28;20128;-42
2021/04/04 21:02:08;;;;;;;16.38;7.13;;;5.00;99.90;;;;;;12354419;28;20060;-42
2021/04/04 21:08:09;;;;;;;13.98;6.70;;;5.10;99.90;;;;;;12348218;28;20142;-41
2021/04/04 21:14:10;;;;;;;16.90;7.68;;;5.10;99.90;;;;;;12349564;28;20104;-41
2021/04/04 21:20:13;;;;;;;15.07;7.82;;;5.00;99.90;;;;;;12355711;28;20447;-41
2021/04/04 21:26:14;;;;;;;13.80;8.05;;;4.90;99.90;;;;;;12357367;28;20046;-41
2021/04/04 21:32:16;;;;;;;15.18;8.35;;;4.90;99.90;;;;;;12347049;28;20051;-42
2021/04/04 21:38:17;;;;;;;19.25;8.93;;;4.90;99.90;;;;;;12346534;28;20742;-41
2021/04/04 21:44:18;;;;;;;17.92;9.27;;;4.80;99.90;;;;;;12348785;28;20097;-43
2021/04/04 21:50:22;;;;;;;23.80;9.95;;;4.90;99.90;;;;;;12353182;28;20062;-42
2021/04/04 21:56:24;;;;;;;20.58;9.00;;;4.90;99.90;;;;;;12347376;28;20058;-41
2021/04/04 22:02:26;;;;;;;27.83;10.85;;;4.80;99.90;;;;;;12354801;28;20089;-41
2021/04/04 22:08:29;;;;;;;22.58;9.77;;;4.90;99.90;;;;;;12352376;28;20124;-41
2021/04/04 22:14:31;;;;;;;20.65;10.60;;;4.80;99.90;;;;;;12350827;28;20069;-42
2021/04/04 22:20:32;;;;;;;20.10;10.45;;;4.80;99.90;;;;;;12353537;28;20084;-41
2021/04/04 22:26:33;;;;;;;21.77;11.68;;;4.80;99.90;;;;;;12353903;28;20264;-42
2021/04/04 22:32:35;;;;;;;20.95;12.50;;;4.70;99.90;;;;;;12344603;28;20396;-42
2021/04/04 22:38:36;;;;;;;27.05;13.27;;;4.70;99.90;;;;;;12350720;28;20046;-41
2021/04/04 22:44:40;;;;;;;26.90;14.15;;;4.80;99.90;;;;;;12342400;28;20046;-43
2021/04/04 22:50:41;;;;;;;30.90;16.60;;;4.80;99.90;;;;;;12347106;28;20072;-42
2021/04/04 22:56:42;;;;;;;31.08;17.08;;;4.80;99.90;;;;;;12352583;28;20047;-41
2021/04/04 23:02:45;;;;;;;27.35;15.65;;;4.90;99.90;;;;;;12343300;28;20054;-41
2021/04/04 23:08:46;;;;;;;27.33;18.38;;;4.90;99.90;;;;;;12361283;28;20167;-41
2021/04/04 23:14:47;;;;;;;29.15;17.17;;;4.80;99.90;;;;;;12359800;28;20062;-41
2021/04/04 23:20:49;;;;;;;28.23;17.55;;;4.90;99.90;;;;;;12359250;28;20068;-41
2021/04/04 23:26:51;;;;;;;31.45;16.42;;;4.90;99.90;;;;;;12357261;28;20046;-41
2021/04/04 23:32:52;;;;;;;26.85;16.08;;;4.80;99.90;;;;;;12357284;28;20046;-41
2021/04/04 23:38:53;;;;;;;31.80;18.02;;;4.80;99.90;;;;;;12359708;28;20096;-41
2021/04/04 23:44:57;;;;;;;32.67;19.50;;;4.80;99.90;;;;;;12361069;28;20558;-41
2021/04/04 23:50:58;;;;;;;37.58;20.83;;;4.80;99.90;;;;;;12355336;28;20046;-41
2021/04/04 23:56:59;;;;;;;35.20;21.58;;;4.70;99.90;;;;;;12355036;28;20461;-41
